createdAt,value
2018-12-17T00:03:18.136Z,11.93
2018-12-17T00:08:31.870Z,16.33
2018-12-17T00:13:33.763Z,16.50
2018-12-17T00:18:38.637Z,16.57
2018-12-17T00:23:43.586Z,14.80
2018-12-17T00:28:48.674Z,15.50
2018-12-17T00:33:53.648Z,16.60
2018-12-17T00:38:58.638Z,15.80
2018-12-17T00:44:04.265Z,15.30
2018-12-17T00:49:09.247Z,15.57
2018-12-17T00:54:15.382Z,15.03
2018-12-17T00:59:20.238Z,14.57
2018-12-17T01:04:25.793Z,12.70
2018-12-17T01:09:30.901Z,12.37
2018-12-17T01:14:35.887Z,11.70
2018-12-17T01:19:41.507Z,12.50
2018-12-17T01:24:46.731Z,13.60
2018-12-17T01:29:52.011Z,15.30
2018-12-17T01:34:57.782Z,14.73
2018-12-17T01:40:03.074Z,15.53
2018-12-17T01:45:09.318Z,13.80
2018-12-17T01:50:14.515Z,12.70
2018-12-17T01:55:19.604Z,14.37
2018-12-17T02:00:24.708Z,12.30
2018-12-17T02:05:30.153Z,10.60
2018-12-17T02:10:35.902Z,12.80
2018-12-17T02:15:40.901Z,11.30
2018-12-17T02:20:47.144Z,10.40
2018-12-17T02:25:52.442Z,10.00
2018-12-17T02:30:57.605Z,10.10
2018-12-17T02:36:03.947Z,9.90
2018-12-17T02:41:09.225Z,10.27
2018-12-17T02:46:14.576Z,10.13
2018-12-17T02:51:19.626Z,9.50
2018-12-17T02:56:24.464Z,8.37
2018-12-17T03:01:29.378Z,8.27
2018-12-17T03:06:34.524Z,7.43
2018-12-17T03:11:39.609Z,8.33
2018-12-17T03:16:45.189Z,8.40
2018-12-17T03:21:50.716Z,7.53
2018-12-17T03:26:55.629Z,7.63
2018-12-17T03:32:00.608Z,6.60
2018-12-17T03:37:07.161Z,7.23
2018-12-17T03:42:12.312Z,6.50
2018-12-17T03:47:18.501Z,8.03
2018-12-17T03:52:23.823Z,7.60
2018-12-17T03:57:29.283Z,7.20
2018-12-17T04:02:35.504Z,6.50
2018-12-17T04:07:53.452Z,6.37
2018-12-17T04:13:04.937Z,5.50
2018-12-17T04:18:09.969Z,5.90
2018-12-17T04:23:14.979Z,5.20
2018-12-17T04:28:21.923Z,5.73
2018-12-17T04:33:26.759Z,4.50
2018-12-17T04:38:32.566Z,6.10
2018-12-17T04:43:37.474Z,5.90
2018-12-17T04:48:42.793Z,5.57
2018-12-17T04:53:47.667Z,5.43
2018-12-17T04:58:52.890Z,5.00
2018-12-17T05:03:58.226Z,4.57
2018-12-17T05:09:03.747Z,5.03
2018-12-17T05:14:11.241Z,5.13
2018-12-17T05:19:16.178Z,5.47
2018-12-17T05:24:20.984Z,5.53
2018-12-17T05:29:25.889Z,4.87
2018-12-17T05:34:30.761Z,5.63
2018-12-17T05:39:35.771Z,6.40
2018-12-17T05:44:40.649Z,6.03
2018-12-17T05:49:45.638Z,6.80
2018-12-17T05:54:50.523Z,7.80
2018-12-17T05:59:56.126Z,7.70
2018-12-17T06:05:01.849Z,7.00
2018-12-17T06:10:08.349Z,7.83
2018-12-17T06:15:13.939Z,8.57
2018-12-17T06:20:19.415Z,9.00
2018-12-17T06:25:26.734Z,9.20
2018-12-17T06:30:31.781Z,8.30
2018-12-17T06:35:37.907Z,7.77
2018-12-17T06:40:42.777Z,7.17
2018-12-17T06:45:47.716Z,7.87
2018-12-17T06:50:52.779Z,7.80
2018-12-17T06:55:57.686Z,7.53
2018-12-17T07:01:03.366Z,6.17
2018-12-17T07:06:08.634Z,6.50
2018-12-17T07:11:13.564Z,6.07
2018-12-17T07:16:22.468Z,6.70
2018-12-17T07:21:27.937Z,7.17
2018-12-17T07:26:32.805Z,5.90
2018-12-17T07:31:38.715Z,8.67
2018-12-17T07:36:43.707Z,6.47
2018-12-17T07:41:48.975Z,6.30
2018-12-17T07:46:54.826Z,7.73
2018-12-17T07:52:07.021Z,6.87
2018-12-17T07:57:12.221Z,7.43
2018-12-17T08:02:17.228Z,7.00
2018-12-17T08:07:22.403Z,7.73
2018-12-17T08:12:27.567Z,6.73
2018-12-17T08:17:33.570Z,7.50
2018-12-17T08:22:39.322Z,7.00
2018-12-17T08:27:45.904Z,6.60
2018-12-17T08:32:50.808Z,7.47
2018-12-17T08:37:56.310Z,8.23
2018-12-17T08:43:01.371Z,7.87
2018-12-17T08:48:06.906Z,6.77
2018-12-17T08:53:11.956Z,7.70
2018-12-17T08:58:17.707Z,6.57
2018-12-17T09:03:22.737Z,6.60
2018-12-17T09:08:28.173Z,7.03
2018-12-17T09:13:33.322Z,7.40
2018-12-17T09:18:38.492Z,6.80
2018-12-17T09:23:43.818Z,7.90
2018-12-17T09:28:49.017Z,7.47
2018-12-17T09:33:54.250Z,7.97
2018-12-17T09:39:00.029Z,6.70
2018-12-17T09:44:05.307Z,7.27
2018-12-17T09:49:10.359Z,6.70
2018-12-17T09:54:15.497Z,7.47
2018-12-17T09:59:21.477Z,7.40
2018-12-17T10:04:26.438Z,6.83
2018-12-17T10:09:31.452Z,6.83
2018-12-17T10:14:36.604Z,7.00
2018-12-17T10:19:41.980Z,6.47
2018-12-17T10:24:47.109Z,6.70
2018-12-17T10:29:52.363Z,6.30
2018-12-17T10:34:57.319Z,6.43
2018-12-17T10:40:02.330Z,5.80
2018-12-17T10:45:09.657Z,6.00
2018-12-17T10:50:15.110Z,5.50
2018-12-17T10:55:20.046Z,6.20
2018-12-17T11:05:05.098Z,5.53
2018-12-17T11:10:10.632Z,5.87
2018-12-17T11:15:16.069Z,5.53
2018-12-17T11:20:20.995Z,5.07
2018-12-17T11:25:26.237Z,5.20
2018-12-17T11:30:31.264Z,5.37
2018-12-17T11:35:36.530Z,6.13
2018-12-17T11:40:41.536Z,6.57
2018-12-17T11:45:47.179Z,5.00
2018-12-17T11:50:53.281Z,5.53
2018-12-17T11:55:58.282Z,7.23
2018-12-17T12:01:05.484Z,6.30
2018-12-17T12:06:14.028Z,5.53
2018-12-17T12:11:18.540Z,5.53
2018-12-17T12:16:23.583Z,4.43
2018-12-17T12:21:29.065Z,3.20
2018-12-17T12:26:33.974Z,2.63
2018-12-17T12:31:38.922Z,3.67
2018-12-17T12:36:44.141Z,4.00
2018-12-17T12:41:49.068Z,3.93
2018-12-17T12:46:54.334Z,4.10
2018-12-17T12:51:59.534Z,4.10
2018-12-17T12:57:04.658Z,3.30
2018-12-17T13:02:09.795Z,5.00
2018-12-17T13:07:14.830Z,3.63
2018-12-17T13:12:20.052Z,3.80
2018-12-17T13:17:30.421Z,4.30
2018-12-17T13:22:35.524Z,4.80
2018-12-17T13:27:40.722Z,4.60
2018-12-17T13:32:47.228Z,4.57
2018-12-17T13:37:52.133Z,4.97
2018-12-17T13:42:57.370Z,4.43
2018-12-17T13:48:02.426Z,4.80
2018-12-17T13:53:13.090Z,4.90
2018-12-17T13:58:18.106Z,5.07
2018-12-17T14:03:23.296Z,4.70
2018-12-17T14:08:28.590Z,5.63
2018-12-17T14:13:34.395Z,6.10
2018-12-17T14:18:44.374Z,5.80
2018-12-17T14:23:50.164Z,5.00
2018-12-17T14:28:55.189Z,7.10
2018-12-17T14:34:00.292Z,5.57
2018-12-17T14:39:07.288Z,5.17
2018-12-17T14:44:19.336Z,4.37
2018-12-17T14:49:25.315Z,4.63
2018-12-17T14:54:31.248Z,4.43
2018-12-17T14:59:37.413Z,6.77
2018-12-17T15:04:44.046Z,11.17
2018-12-17T15:09:49.329Z,4.17
2018-12-17T15:14:54.370Z,4.80
2018-12-17T15:19:59.492Z,5.37
2018-12-17T15:25:07.945Z,4.60
2018-12-17T15:30:13.210Z,11.20
2018-12-17T15:35:18.342Z,6.33
2018-12-17T15:40:23.334Z,6.60
2018-12-17T15:45:28.713Z,17.47
2018-12-17T15:50:35.098Z,5.67
2018-12-17T15:55:40.209Z,6.83
2018-12-17T16:00:45.768Z,5.73
2018-12-17T16:05:52.586Z,7.17
2018-12-17T16:10:58.320Z,9.73
2018-12-17T16:16:03.595Z,11.23
2018-12-17T16:21:09.126Z,8.90
2018-12-17T16:26:14.504Z,7.03
2018-12-17T16:31:19.617Z,9.00
2018-12-17T16:36:26.079Z,5.13
2018-12-17T16:41:32.107Z,6.53
2018-12-17T16:46:37.256Z,6.00
2018-12-17T16:51:43.079Z,8.90
2018-12-17T16:56:48.140Z,7.90
2018-12-17T17:01:53.633Z,5.50
2018-12-17T17:06:59.885Z,6.90
2018-12-17T17:12:05.326Z,5.40
2018-12-17T17:17:10.588Z,6.53
2018-12-17T17:27:25.998Z,6.20
2018-12-17T17:32:31.408Z,7.40
2018-12-17T17:37:36.616Z,7.63
2018-12-17T17:42:42.253Z,8.00
2018-12-17T17:47:49.362Z,6.03
2018-12-17T17:52:54.500Z,5.60
2018-12-17T17:57:59.726Z,5.97
2018-12-17T18:03:05.339Z,8.17
2018-12-17T18:08:11.112Z,6.33
2018-12-17T18:13:16.353Z,11.90
2018-12-17T18:18:22.116Z,10.50
2018-12-17T18:23:27.800Z,11.30
2018-12-17T18:28:33.429Z,5.40
2018-12-17T18:33:39.452Z,5.00
2018-12-17T18:38:44.643Z,5.60
2018-12-17T18:43:49.911Z,5.00
2018-12-17T18:48:55.109Z,5.60
2018-12-17T18:54:00.281Z,5.00
2018-12-17T18:59:06.500Z,5.70
2018-12-17T19:04:12.408Z,5.60
2018-12-17T19:09:17.779Z,5.37
2018-12-17T19:14:24.486Z,5.33
2018-12-17T19:19:30.886Z,5.43
2018-12-17T19:24:35.966Z,6.80
2018-12-17T19:29:41.680Z,6.33
2018-12-17T19:34:47.016Z,6.47
2018-12-17T19:39:53.748Z,6.13
2018-12-17T19:44:59.990Z,7.20
2018-12-17T19:50:08.338Z,6.47
2018-12-17T19:55:16.558Z,6.93
2018-12-17T20:00:26.721Z,6.80
2018-12-17T20:05:32.573Z,6.60
2018-12-17T20:10:39.978Z,6.80
2018-12-17T20:15:48.207Z,7.20
2018-12-17T20:20:54.261Z,7.70
2018-12-17T20:26:00.502Z,8.23
2018-12-17T20:31:08.853Z,7.60
2018-12-17T20:36:14.487Z,8.00
2018-12-17T20:41:22.191Z,7.40
2018-12-17T20:46:28.063Z,7.77
2018-12-17T20:51:33.527Z,8.40
2018-12-17T20:56:38.746Z,8.20
2018-12-17T21:01:43.913Z,6.50
2018-12-17T21:06:50.057Z,7.83
2018-12-17T21:11:56.397Z,8.10
2018-12-17T21:17:02.207Z,7.60
2018-12-17T21:22:10.987Z,7.43
2018-12-17T21:27:17.151Z,7.43
2018-12-17T21:32:23.178Z,7.47
2018-12-17T21:37:28.266Z,7.93
2018-12-17T21:42:33.469Z,7.37
2018-12-17T21:52:49.193Z,6.63
2018-12-17T21:57:54.325Z,7.67
2018-12-17T22:03:00.278Z,6.73
2018-12-17T22:08:06.703Z,7.60
2018-12-17T22:13:12.951Z,7.40
2018-12-17T22:18:18.973Z,8.50
2018-12-17T22:23:24.131Z,7.87
2018-12-17T22:28:29.451Z,6.80
2018-12-17T22:33:35.196Z,7.63
2018-12-17T22:38:40.292Z,8.60
2018-12-17T22:43:45.847Z,7.30
2018-12-17T22:48:50.831Z,6.53
2018-12-17T22:59:06.098Z,7.07
2018-12-17T23:04:11.124Z,6.37
2018-12-17T23:09:14.888Z,7.53
2018-12-17T23:14:32.839Z,6.53
2018-12-17T23:19:44.524Z,7.10
2018-12-17T23:24:51.761Z,7.17
2018-12-17T23:29:56.678Z,6.50
2018-12-17T23:35:01.748Z,6.47
2018-12-17T23:40:10.310Z,6.10
2018-12-17T23:45:19.431Z,6.37
2018-12-17T23:50:24.350Z,6.60
2018-12-17T23:55:30.882Z,7.70
